Allen, Kentucky
Current Conditions -  °F | °C
As of 4:35 AM on Saturday 29 Nov 2014 (Local Time) from KPBX Reporting Station
Broken Clouds Broken Clouds  
Wind Chill: 30°   Ceiling: 7000
Heat Index: 34°   Visibility: 10mi
Dew Point: 20°   Wind: 5mph
Humidity: 58%   Direction: 160°SSE
Pressure: 30.14"   Gusts: NA
Location:  37.61°N, 82.73°W
Report Text: KPBX 290935Z AUTO 16004KT 10SM BKN070 01/M06 A3014 RMK AO2 T00101065
Loading
Personal Weather Stations






























Interactive Weather Map New forecast layout! Learn more

10-Day Weather Forecast

Advertisements
Track Severe Weather on mobile